sensor_id;sensor_type;location;lat;lon;timestamp;P1;durP1;ratioP1;P2;durP2;ratioP2
54743;SDS011;40639;53.170;6.728;2023-08-31T00:01:49;2.83;;;1.33;;
54743;SDS011;40639;53.170;6.728;2023-08-31T00:04:17;4.55;;;1.80;;
54743;SDS011;40639;53.170;6.728;2023-08-31T00:06:43;4.85;;;1.95;;
54743;SDS011;40639;53.170;6.728;2023-08-31T00:09:12;5.63;;;1.60;;
54743;SDS011;40639;53.170;6.728;2023-08-31T00:11:38;4.28;;;1.60;;
54743;SDS011;40639;53.170;6.728;2023-08-31T00:14:05;5.82;;;2.60;;
54743;SDS011;40639;53.170;6.728;2023-08-31T00:16:31;3.30;;;1.60;;
54743;SDS011;40639;53.170;6.728;2023-08-31T00:18:58;5.28;;;1.85;;
54743;SDS011;40639;53.170;6.728;2023-08-31T00:21:24;5.50;;;1.70;;
54743;SDS011;40639;53.170;6.728;2023-08-31T00:23:50;5.38;;;1.67;;
54743;SDS011;40639;53.170;6.728;2023-08-31T00:26:17;3.80;;;2.20;;
54743;SDS011;40639;53.170;6.728;2023-08-31T00:28:43;4.00;;;1.80;;
54743;SDS011;40639;53.170;6.728;2023-08-31T00:31:09;3.60;;;1.60;;
54743;SDS011;40639;53.170;6.728;2023-08-31T00:33:37;3.15;;;1.70;;
54743;SDS011;40639;53.170;6.728;2023-08-31T00:36:03;6.43;;;1.98;;
54743;SDS011;40639;53.170;6.728;2023-08-31T00:38:33;4.03;;;1.73;;
54743;SDS011;40639;53.170;6.728;2023-08-31T00:40:59;5.53;;;1.92;;
54743;SDS011;40639;53.170;6.728;2023-08-31T00:43:26;3.55;;;1.50;;
54743;SDS011;40639;53.170;6.728;2023-08-31T00:45:54;3.67;;;1.55;;
54743;SDS011;40639;53.170;6.728;2023-08-31T00:48:23;2.75;;;1.55;;
54743;SDS011;40639;53.170;6.728;2023-08-31T00:50:49;4.90;;;1.88;;
54743;SDS011;40639;53.170;6.728;2023-08-31T00:53:16;3.55;;;1.27;;
54743;SDS011;40639;53.170;6.728;2023-08-31T00:55:45;3.25;;;1.67;;
54743;SDS011;40639;53.170;6.728;2023-08-31T00:58:12;6.40;;;1.77;;
54743;SDS011;40639;53.170;6.728;2023-08-31T01:03:07;3.67;;;1.35;;
54743;SDS011;40639;53.170;6.728;2023-08-31T01:08:12;5.93;;;1.70;;
54743;SDS011;40639;53.170;6.728;2023-08-31T01:13:08;3.00;;;1.10;;
54743;SDS011;40639;53.170;6.728;2023-08-31T01:15:39;5.05;;;1.40;;
54743;SDS011;40639;53.170;6.728;2023-08-31T01:18:07;3.60;;;1.10;;
54743;SDS011;40639;53.170;6.728;2023-08-31T01:20:40;3.85;;;1.42;;
54743;SDS011;40639;53.170;6.728;2023-08-31T01:23:10;2.97;;;1.40;;
54743;SDS011;40639;53.170;6.728;2023-08-31T01:25:36;3.25;;;1.02;;
54743;SDS011;40639;53.170;6.728;2023-08-31T01:28:03;6.10;;;1.17;;
54743;SDS011;40639;53.170;6.728;2023-08-31T01:30:30;5.32;;;1.55;;
54743;SDS011;40639;53.170;6.728;2023-08-31T01:32:57;3.88;;;1.23;;
54743;SDS011;40639;53.170;6.728;2023-08-31T01:35:23;2.00;;;1.02;;
54743;SDS011;40639;53.170;6.728;2023-08-31T01:37:53;2.80;;;1.10;;
54743;SDS011;40639;53.170;6.728;2023-08-31T01:40:24;5.30;;;1.50;;
54743;SDS011;40639;53.170;6.728;2023-08-31T01:42:51;2.60;;;1.30;;
54743;SDS011;40639;53.170;6.728;2023-08-31T01:45:19;2.15;;;1.20;;
54743;SDS011;40639;53.170;6.728;2023-08-31T01:47:46;5.30;;;1.77;;
54743;SDS011;40639;53.170;6.728;2023-08-31T01:50:12;3.22;;;1.33;;
54743;SDS011;40639;53.170;6.728;2023-08-31T01:52:38;4.13;;;1.25;;
54743;SDS011;40639;53.170;6.728;2023-08-31T01:55:05;4.03;;;1.05;;
54743;SDS011;40639;53.170;6.728;2023-08-31T01:57:31;2.72;;;1.05;;
54743;SDS011;40639;53.170;6.728;2023-08-31T01:59:58;2.20;;;0.90;;
54743;SDS011;40639;53.170;6.728;2023-08-31T02:02:25;2.13;;;0.95;;
54743;SDS011;40639;53.170;6.728;2023-08-31T02:04:51;6.55;;;1.70;;
54743;SDS011;40639;53.170;6.728;2023-08-31T02:07:17;3.20;;;1.13;;
54743;SDS011;40639;53.170;6.728;2023-08-31T02:09:44;1.45;;;0.70;;
54743;SDS011;40639;53.170;6.728;2023-08-31T02:12:10;2.38;;;0.90;;
54743;SDS011;40639;53.170;6.728;2023-08-31T02:14:36;2.92;;;1.23;;
54743;SDS011;40639;53.170;6.728;2023-08-31T02:17:03;4.43;;;0.80;;
54743;SDS011;40639;53.170;6.728;2023-08-31T02:19:30;3.33;;;1.17;;
54743;SDS011;40639;53.170;6.728;2023-08-31T02:21:56;2.47;;;1.10;;
54743;SDS011;40639;53.170;6.728;2023-08-31T02:24:22;2.42;;;1.10;;
54743;SDS011;40639;53.170;6.728;2023-08-31T02:26:48;2.88;;;1.15;;
54743;SDS011;40639;53.170;6.728;2023-08-31T02:29:14;2.45;;;0.90;;
54743;SDS011;40639;53.170;6.728;2023-08-31T02:31:40;4.05;;;1.13;;
54743;SDS011;40639;53.170;6.728;2023-08-31T02:34:07;3.85;;;1.20;;
54743;SDS011;40639;53.170;6.728;2023-08-31T02:36:33;2.85;;;1.00;;
54743;SDS011;40639;53.170;6.728;2023-08-31T02:38:59;2.30;;;1.20;;
54743;SDS011;40639;53.170;6.728;2023-08-31T02:41:25;2.15;;;0.93;;
54743;SDS011;40639;53.170;6.728;2023-08-31T02:43:51;3.63;;;1.00;;
54743;SDS011;40639;53.170;6.728;2023-08-31T02:46:18;2.08;;;1.02;;
54743;SDS011;40639;53.170;6.728;2023-08-31T02:48:44;2.80;;;1.38;;
54743;SDS011;40639;53.170;6.728;2023-08-31T02:51:10;2.30;;;0.90;;
54743;SDS011;40639;53.170;6.728;2023-08-31T02:53:36;6.68;;;1.13;;
54743;SDS011;40639;53.170;6.728;2023-08-31T02:56:02;5.05;;;1.63;;
54743;SDS011;40639;53.170;6.728;2023-08-31T02:58:29;6.53;;;1.85;;
54743;SDS011;40639;53.170;6.728;2023-08-31T03:00:55;4.18;;;1.05;;
54743;SDS011;40639;53.170;6.728;2023-08-31T03:03:22;2.80;;;1.13;;
54743;SDS011;40639;53.170;6.728;2023-08-31T03:05:48;4.88;;;1.00;;
54743;SDS011;40639;53.170;6.728;2023-08-31T03:08:14;2.05;;;1.23;;
54743;SDS011;40639;53.170;6.728;2023-08-31T03:10:40;4.75;;;1.55;;
54743;SDS011;40639;53.170;6.728;2023-08-31T03:13:06;5.82;;;1.45;;
54743;SDS011;40639;53.170;6.728;2023-08-31T03:15:33;4.15;;;1.10;;
54743;SDS011;40639;53.170;6.728;2023-08-31T03:17:59;3.10;;;1.20;;
54743;SDS011;40639;53.170;6.728;2023-08-31T03:20:25;2.40;;;1.20;;
54743;SDS011;40639;53.170;6.728;2023-08-31T03:22:51;3.05;;;1.20;;
54743;SDS011;40639;53.170;6.728;2023-08-31T03:25:17;2.35;;;1.00;;
54743;SDS011;40639;53.170;6.728;2023-08-31T03:27:44;4.45;;;1.30;;
54743;SDS011;40639;53.170;6.728;2023-08-31T03:30:10;4.05;;;1.52;;
54743;SDS011;40639;53.170;6.728;2023-08-31T03:32:36;3.65;;;1.05;;
54743;SDS011;40639;53.170;6.728;2023-08-31T03:35:02;2.45;;;1.30;;
54743;SDS011;40639;53.170;6.728;2023-08-31T03:37:29;2.88;;;1.40;;
54743;SDS011;40639;53.170;6.728;2023-08-31T03:39:55;4.35;;;1.42;;
54743;SDS011;40639;53.170;6.728;2023-08-31T03:42:21;3.58;;;1.45;;
54743;SDS011;40639;53.170;6.728;2023-08-31T03:44:47;3.90;;;1.60;;
54743;SDS011;40639;53.170;6.728;2023-08-31T03:47:13;2.40;;;1.10;;
54743;SDS011;40639;53.170;6.728;2023-08-31T03:49:39;3.55;;;1.92;;
54743;SDS011;40639;53.170;6.728;2023-08-31T03:52:05;4.38;;;1.75;;
54743;SDS011;40639;53.170;6.728;2023-08-31T03:54:31;3.42;;;1.75;;
54743;SDS011;40639;53.170;6.728;2023-08-31T03:56:58;4.72;;;1.85;;
54743;SDS011;40639;53.170;6.728;2023-08-31T03:59:24;10.05;;;2.10;;
54743;SDS011;40639;53.170;6.728;2023-08-31T04:01:50;4.30;;;1.65;;
54743;SDS011;40639;53.170;6.728;2023-08-31T04:04:16;3.50;;;1.45;;
54743;SDS011;40639;53.170;6.728;2023-08-31T04:06:42;6.82;;;1.92;;
54743;SDS011;40639;53.170;6.728;2023-08-31T04:09:08;4.05;;;1.90;;
54743;SDS011;40639;53.170;6.728;2023-08-31T04:11:35;4.85;;;1.85;;
54743;SDS011;40639;53.170;6.728;2023-08-31T04:14:01;5.40;;;2.03;;
54743;SDS011;40639;53.170;6.728;2023-08-31T04:16:27;3.55;;;1.63;;
54743;SDS011;40639;53.170;6.728;2023-08-31T04:18:54;3.17;;;1.67;;
54743;SDS011;40639;53.170;6.728;2023-08-31T04:21:20;6.20;;;2.10;;
54743;SDS011;40639;53.170;6.728;2023-08-31T04:23:46;3.67;;;1.90;;
54743;SDS011;40639;53.170;6.728;2023-08-31T04:26:12;3.63;;;1.60;;
54743;SDS011;40639;53.170;6.728;2023-08-31T04:28:39;5.85;;;1.98;;
54743;SDS011;40639;53.170;6.728;2023-08-31T04:31:08;4.15;;;1.98;;
54743;SDS011;40639;53.170;6.728;2023-08-31T04:33:35;3.15;;;1.85;;
54743;SDS011;40639;53.170;6.728;2023-08-31T04:36:01;3.50;;;1.85;;
54743;SDS011;40639;53.170;6.728;2023-08-31T04:38:28;4.03;;;1.85;;
54743;SDS011;40639;53.170;6.728;2023-08-31T04:40:57;5.10;;;2.40;;
54743;SDS011;40639;53.170;6.728;2023-08-31T04:43:24;4.60;;;2.13;;
54743;SDS011;40639;53.170;6.728;2023-08-31T04:45:51;5.38;;;2.33;;
54743;SDS011;40639;53.170;6.728;2023-08-31T04:48:17;4.60;;;2.50;;
54743;SDS011;40639;53.170;6.728;2023-08-31T04:50:43;4.38;;;2.45;;
54743;SDS011;40639;53.170;6.728;2023-08-31T04:53:09;4.85;;;2.58;;
54743;SDS011;40639;53.170;6.728;2023-08-31T04:55:35;5.93;;;2.58;;
54743;SDS011;40639;53.170;6.728;2023-08-31T04:58:02;4.95;;;2.85;;
54743;SDS011;40639;53.170;6.728;2023-08-31T05:00:29;4.55;;;2.53;;
54743;SDS011;40639;53.170;6.728;2023-08-31T05:02:55;6.97;;;3.10;;
54743;SDS011;40639;53.170;6.728;2023-08-31T05:05:21;5.30;;;3.30;;
54743;SDS011;40639;53.170;6.728;2023-08-31T05:07:47;5.63;;;3.50;;
54743;SDS011;40639;53.170;6.728;2023-08-31T05:10:13;7.72;;;3.55;;
54743;SDS011;40639;53.170;6.728;2023-08-31T05:12:40;5.65;;;3.60;;
54743;SDS011;40639;53.170;6.728;2023-08-31T05:15:06;7.20;;;3.63;;
54743;SDS011;40639;53.170;6.728;2023-08-31T05:17:33;6.75;;;4.13;;
54743;SDS011;40639;53.170;6.728;2023-08-31T05:19:59;6.15;;;3.95;;
54743;SDS011;40639;53.170;6.728;2023-08-31T05:22:25;8.05;;;3.88;;
54743;SDS011;40639;53.170;6.728;2023-08-31T05:24:51;7.82;;;3.90;;
54743;SDS011;40639;53.170;6.728;2023-08-31T05:27:17;7.13;;;3.95;;
54743;SDS011;40639;53.170;6.728;2023-08-31T05:29:43;6.38;;;3.85;;
54743;SDS011;40639;53.170;6.728;2023-08-31T05:32:09;8.60;;;4.38;;
54743;SDS011;40639;53.170;6.728;2023-08-31T05:34:36;7.18;;;3.85;;
54743;SDS011;40639;53.170;6.728;2023-08-31T05:37:04;6.10;;;4.00;;
54743;SDS011;40639;53.170;6.728;2023-08-31T05:39:30;6.75;;;4.50;;
54743;SDS011;40639;53.170;6.728;2023-08-31T05:41:56;8.82;;;4.10;;
54743;SDS011;40639;53.170;6.728;2023-08-31T05:44:22;6.43;;;4.03;;
54743;SDS011;40639;53.170;6.728;2023-08-31T05:46:49;6.72;;;4.05;;
54743;SDS011;40639;53.170;6.728;2023-08-31T05:49:15;6.10;;;3.70;;
54743;SDS011;40639;53.170;6.728;2023-08-31T05:51:41;7.15;;;3.60;;
54743;SDS011;40639;53.170;6.728;2023-08-31T05:54:07;6.38;;;3.60;;
54743;SDS011;40639;53.170;6.728;2023-08-31T05:56:37;4.88;;;3.38;;
54743;SDS011;40639;53.170;6.728;2023-08-31T05:59:07;5.32;;;3.20;;
54743;SDS011;40639;53.170;6.728;2023-08-31T06:01:34;7.30;;;3.33;;
54743;SDS011;40639;53.170;6.728;2023-08-31T06:04:03;7.95;;;3.22;;
54743;SDS011;40639;53.170;6.728;2023-08-31T06:06:30;8.20;;;3.58;;
54743;SDS011;40639;53.170;6.728;2023-08-31T06:08:57;5.72;;;3.30;;
54743;SDS011;40639;53.170;6.728;2023-08-31T06:11:24;6.57;;;3.13;;
54743;SDS011;40639;53.170;6.728;2023-08-31T06:13:50;7.40;;;3.30;;
54743;SDS011;40639;53.170;6.728;2023-08-31T06:16:16;6.82;;;2.78;;
54743;SDS011;40639;53.170;6.728;2023-08-31T06:18:42;5.95;;;2.90;;
54743;SDS011;40639;53.170;6.728;2023-08-31T06:21:08;6.43;;;2.80;;
54743;SDS011;40639;53.170;6.728;2023-08-31T06:23:35;7.80;;;2.60;;
54743;SDS011;40639;53.170;6.728;2023-08-31T06:26:01;7.20;;;2.50;;
54743;SDS011;40639;53.170;6.728;2023-08-31T06:28:28;7.18;;;2.30;;
54743;SDS011;40639;53.170;6.728;2023-08-31T06:30:54;6.25;;;2.67;;
54743;SDS011;40639;53.170;6.728;2023-08-31T06:33:20;4.63;;;2.38;;
54743;SDS011;40639;53.170;6.728;2023-08-31T06:35:47;5.65;;;2.30;;
54743;SDS011;40639;53.170;6.728;2023-08-31T06:38:17;5.43;;;1.95;;
54743;SDS011;40639;53.170;6.728;2023-08-31T06:40:43;7.13;;;2.38;;
54743;SDS011;40639;53.170;6.728;2023-08-31T06:43:09;3.85;;;2.50;;
54743;SDS011;40639;53.170;6.728;2023-08-31T06:45:35;4.47;;;2.10;;
54743;SDS011;40639;53.170;6.728;2023-08-31T06:48:01;6.50;;;2.10;;
54743;SDS011;40639;53.170;6.728;2023-08-31T06:50:28;5.40;;;2.15;;
54743;SDS011;40639;53.170;6.728;2023-08-31T06:52:54;7.68;;;2.20;;
54743;SDS011;40639;53.170;6.728;2023-08-31T06:55:20;3.67;;;2.13;;
54743;SDS011;40639;53.170;6.728;2023-08-31T06:57:46;5.32;;;1.58;;
54743;SDS011;40639;53.170;6.728;2023-08-31T07:00:12;4.45;;;1.75;;
54743;SDS011;40639;53.170;6.728;2023-08-31T07:02:39;5.43;;;1.60;;
54743;SDS011;40639;53.170;6.728;2023-08-31T07:05:07;2.97;;;1.65;;
54743;SDS011;40639;53.170;6.728;2023-08-31T07:07:34;6.55;;;1.90;;
54743;SDS011;40639;53.170;6.728;2023-08-31T07:10:00;4.00;;;1.02;;
54743;SDS011;40639;53.170;6.728;2023-08-31T07:12:26;8.35;;;1.85;;
54743;SDS011;40639;53.170;6.728;2023-08-31T07:14:52;3.40;;;1.33;;
54743;SDS011;40639;53.170;6.728;2023-08-31T07:17:18;4.35;;;1.17;;
54743;SDS011;40639;53.170;6.728;2023-08-31T07:19:45;2.50;;;0.95;;
54743;SDS011;40639;53.170;6.728;2023-08-31T07:22:11;2.72;;;1.38;;
54743;SDS011;40639;53.170;6.728;2023-08-31T07:24:40;4.85;;;1.30;;
54743;SDS011;40639;53.170;6.728;2023-08-31T07:27:06;4.05;;;1.10;;
54743;SDS011;40639;53.170;6.728;2023-08-31T07:29:32;4.72;;;1.52;;
54743;SDS011;40639;53.170;6.728;2023-08-31T07:31:58;2.97;;;1.25;;
54743;SDS011;40639;53.170;6.728;2023-08-31T07:34:24;4.35;;;1.50;;
54743;SDS011;40639;53.170;6.728;2023-08-31T07:36:51;5.95;;;2.03;;
54743;SDS011;40639;53.170;6.728;2023-08-31T07:39:18;7.95;;;2.72;;
54743;SDS011;40639;53.170;6.728;2023-08-31T07:41:44;26.83;;;14.85;;
54743;SDS011;40639;53.170;6.728;2023-08-31T07:44:10;5.20;;;1.80;;
54743;SDS011;40639;53.170;6.728;2023-08-31T07:46:37;4.10;;;1.33;;
54743;SDS011;40639;53.170;6.728;2023-08-31T07:49:03;2.78;;;1.10;;
54743;SDS011;40639;53.170;6.728;2023-08-31T07:51:29;4.72;;;0.88;;
54743;SDS011;40639;53.170;6.728;2023-08-31T07:53:56;3.65;;;1.05;;
54743;SDS011;40639;53.170;6.728;2023-08-31T07:56:22;2.70;;;0.80;;
54743;SDS011;40639;53.170;6.728;2023-08-31T07:58:49;3.65;;;0.88;;
54743;SDS011;40639;53.170;6.728;2023-08-31T08:01:15;2.75;;;0.80;;
54743;SDS011;40639;53.170;6.728;2023-08-31T08:03:42;5.43;;;0.80;;
54743;SDS011;40639;53.170;6.728;2023-08-31T08:06:08;2.08;;;0.75;;
54743;SDS011;40639;53.170;6.728;2023-08-31T08:08:35;3.38;;;0.70;;
54743;SDS011;40639;53.170;6.728;2023-08-31T08:11:01;3.42;;;0.70;;
54743;SDS011;40639;53.170;6.728;2023-08-31T08:13:28;3.50;;;0.95;;
54743;SDS011;40639;53.170;6.728;2023-08-31T08:15:54;2.20;;;0.80;;
54743;SDS011;40639;53.170;6.728;2023-08-31T08:18:20;6.55;;;1.00;;
54743;SDS011;40639;53.170;6.728;2023-08-31T08:20:52;1.67;;;0.68;;
54743;SDS011;40639;53.170;6.728;2023-08-31T08:23:19;1.85;;;0.60;;
54743;SDS011;40639;53.170;6.728;2023-08-31T08:25:47;2.55;;;0.57;;
54743;SDS011;40639;53.170;6.728;2023-08-31T08:28:13;2.75;;;0.70;;
54743;SDS011;40639;53.170;6.728;2023-08-31T08:30:42;3.13;;;0.70;;
54743;SDS011;40639;53.170;6.728;2023-08-31T08:33:08;1.90;;;0.80;;
54743;SDS011;40639;53.170;6.728;2023-08-31T08:35:36;2.78;;;0.95;;
54743;SDS011;40639;53.170;6.728;2023-08-31T08:38:03;3.58;;;0.77;;
54743;SDS011;40639;53.170;6.728;2023-08-31T08:40:31;3.53;;;0.65;;
54743;SDS011;40639;53.170;6.728;2023-08-31T08:43:00;2.20;;;0.70;;
54743;SDS011;40639;53.170;6.728;2023-08-31T08:45:26;1.52;;;0.60;;
54743;SDS011;40639;53.170;6.728;2023-08-31T08:47:57;1.92;;;0.43;;
54743;SDS011;40639;53.170;6.728;2023-08-31T08:50:23;1.88;;;0.63;;
54743;SDS011;40639;53.170;6.728;2023-08-31T08:52:49;2.00;;;0.55;;
54743;SDS011;40639;53.170;6.728;2023-08-31T08:55:16;5.53;;;0.70;;
54743;SDS011;40639;53.170;6.728;2023-08-31T08:57:43;3.10;;;0.68;;
54743;SDS011;40639;53.170;6.728;2023-08-31T09:00:09;2.40;;;0.60;;
54743;SDS011;40639;53.170;6.728;2023-08-31T09:02:36;3.05;;;0.60;;
54743;SDS011;40639;53.170;6.728;2023-08-31T09:05:02;13.88;;;2.00;;
54743;SDS011;40639;53.170;6.728;2023-08-31T09:07:33;4.72;;;1.10;;
54743;SDS011;40639;53.170;6.728;2023-08-31T09:10:09;2.20;;;0.52;;
54743;SDS011;40639;53.170;6.728;2023-08-31T09:12:35;3.00;;;0.57;;
54743;SDS011;40639;53.170;6.728;2023-08-31T09:15:04;1.50;;;0.47;;
54743;SDS011;40639;53.170;6.728;2023-08-31T09:17:41;2.30;;;0.40;;
54743;SDS011;40639;53.170;6.728;2023-08-31T09:20:09;3.03;;;0.60;;
54743;SDS011;40639;53.170;6.728;2023-08-31T09:22:35;2.22;;;0.70;;
54743;SDS011;40639;53.170;6.728;2023-08-31T09:25:01;3.05;;;0.90;;
54743;SDS011;40639;53.170;6.728;2023-08-31T09:27:31;4.00;;;0.95;;
54743;SDS011;40639;53.170;6.728;2023-08-31T09:30:04;5.03;;;0.80;;
54743;SDS011;40639;53.170;6.728;2023-08-31T09:32:30;3.75;;;0.60;;
54743;SDS011;40639;53.170;6.728;2023-08-31T09:34:56;1.48;;;0.40;;
54743;SDS011;40639;53.170;6.728;2023-08-31T09:37:23;1.90;;;0.43;;
54743;SDS011;40639;53.170;6.728;2023-08-31T09:39:49;1.70;;;0.47;;
54743;SDS011;40639;53.170;6.728;2023-08-31T09:42:15;1.58;;;0.57;;
54743;SDS011;40639;53.170;6.728;2023-08-31T09:44:44;1.40;;;0.50;;
54743;SDS011;40639;53.170;6.728;2023-08-31T09:47:10;1.92;;;0.50;;
54743;SDS011;40639;53.170;6.728;2023-08-31T09:49:37;1.08;;;0.40;;
54743;SDS011;40639;53.170;6.728;2023-08-31T09:52:04;2.20;;;0.63;;
54743;SDS011;40639;53.170;6.728;2023-08-31T09:54:31;1.00;;;0.40;;
54743;SDS011;40639;53.170;6.728;2023-08-31T09:56:59;0.98;;;0.60;;
54743;SDS011;40639;53.170;6.728;2023-08-31T09:59:27;2.63;;;0.65;;
54743;SDS011;40639;53.170;6.728;2023-08-31T10:01:53;2.65;;;0.60;;
54743;SDS011;40639;53.170;6.728;2023-08-31T10:04:21;3.38;;;0.90;;
54743;SDS011;40639;53.170;6.728;2023-08-31T10:06:48;1.23;;;0.47;;
54743;SDS011;40639;53.170;6.728;2023-08-31T10:09:14;2.47;;;0.57;;
54743;SDS011;40639;53.170;6.728;2023-08-31T10:11:41;1.75;;;0.73;;
54743;SDS011;40639;53.170;6.728;2023-08-31T10:14:08;1.48;;;0.70;;
54743;SDS011;40639;53.170;6.728;2023-08-31T10:16:39;2.13;;;1.05;;
54743;SDS011;40639;53.170;6.728;2023-08-31T10:19:05;2.08;;;0.63;;
54743;SDS011;40639;53.170;6.728;2023-08-31T10:21:31;2.10;;;0.70;;
54743;SDS011;40639;53.170;6.728;2023-08-31T10:23:58;2.45;;;1.27;;
54743;SDS011;40639;53.170;6.728;2023-08-31T10:26:28;1.48;;;0.70;;
54743;SDS011;40639;53.170;6.728;2023-08-31T10:28:54;2.28;;;0.40;;
54743;SDS011;40639;53.170;6.728;2023-08-31T10:31:22;1.10;;;0.57;;
54743;SDS011;40639;53.170;6.728;2023-08-31T10:33:58;4.00;;;1.02;;
54743;SDS011;40639;53.170;6.728;2023-08-31T10:36:40;2.45;;;0.70;;
54743;SDS011;40639;53.170;6.728;2023-08-31T10:39:12;1.00;;;0.40;;
54743;SDS011;40639;53.170;6.728;2023-08-31T10:41:41;2.00;;;0.60;;
54743;SDS011;40639;53.170;6.728;2023-08-31T10:44:20;1.52;;;0.80;;
54743;SDS011;40639;53.170;6.728;2023-08-31T10:46:46;1.45;;;0.50;;
54743;SDS011;40639;53.170;6.728;2023-08-31T10:49:13;2.08;;;0.45;;
54743;SDS011;40639;53.170;6.728;2023-08-31T10:51:40;3.33;;;0.70;;
54743;SDS011;40639;53.170;6.728;2023-08-31T10:56:51;0.70;;;0.50;;
54743;SDS011;40639;53.170;6.728;2023-08-31T10:59:21;2.45;;;0.77;;
54743;SDS011;40639;53.170;6.728;2023-08-31T11:04:20;2.85;;;0.63;;
54743;SDS011;40639;53.170;6.728;2023-08-31T11:06:46;3.15;;;0.90;;
54743;SDS011;40639;53.170;6.728;2023-08-31T11:09:19;0.70;;;0.40;;
54743;SDS011;40639;53.170;6.728;2023-08-31T11:12:03;1.70;;;0.63;;
54743;SDS011;40639;53.170;6.728;2023-08-31T11:14:30;1.83;;;0.70;;
54743;SDS011;40639;53.170;6.728;2023-08-31T11:16:56;1.50;;;0.50;;
54743;SDS011;40639;53.170;6.728;2023-08-31T11:19:22;1.75;;;0.52;;
54743;SDS011;40639;53.170;6.728;2023-08-31T11:21:48;1.70;;;0.55;;
54743;SDS011;40639;53.170;6.728;2023-08-31T11:24:17;1.95;;;0.70;;
54743;SDS011;40639;53.170;6.728;2023-08-31T11:26:43;2.20;;;0.57;;
54743;SDS011;40639;53.170;6.728;2023-08-31T11:29:09;1.75;;;0.40;;
54743;SDS011;40639;53.170;6.728;2023-08-31T11:31:38;2.08;;;0.65;;
54743;SDS011;40639;53.170;6.728;2023-08-31T11:34:14;4.30;;;0.70;;
54743;SDS011;40639;53.170;6.728;2023-08-31T11:36:44;1.35;;;0.60;;
54743;SDS011;40639;53.170;6.728;2023-08-31T11:39:11;2.83;;;0.73;;
54743;SDS011;40639;53.170;6.728;2023-08-31T11:41:37;1.90;;;0.50;;
54743;SDS011;40639;53.170;6.728;2023-08-31T11:44:10;1.88;;;0.77;;
54743;SDS011;40639;53.170;6.728;2023-08-31T11:46:37;1.20;;;0.55;;
54743;SDS011;40639;53.170;6.728;2023-08-31T11:49:04;3.38;;;0.95;;
54743;SDS011;40639;53.170;6.728;2023-08-31T11:51:31;1.63;;;0.70;;
54743;SDS011;40639;53.170;6.728;2023-08-31T11:53:58;2.45;;;1.08;;
54743;SDS011;40639;53.170;6.728;2023-08-31T11:56:25;1.35;;;0.60;;
54743;SDS011;40639;53.170;6.728;2023-08-31T11:58:51;0.50;;;0.45;;
54743;SDS011;40639;53.170;6.728;2023-08-31T12:01:18;1.30;;;0.50;;
54743;SDS011;40639;53.170;6.728;2023-08-31T12:03:46;2.25;;;0.50;;
54743;SDS011;40639;53.170;6.728;2023-08-31T12:06:18;5.00;;;1.05;;
54743;SDS011;40639;53.170;6.728;2023-08-31T12:08:44;1.77;;;0.60;;
54743;SDS011;40639;53.170;6.728;2023-08-31T12:11:11;1.95;;;0.60;;
54743;SDS011;40639;53.170;6.728;2023-08-31T12:13:37;1.67;;;0.60;;
54743;SDS011;40639;53.170;6.728;2023-08-31T12:16:03;1.50;;;0.60;;
54743;SDS011;40639;53.170;6.728;2023-08-31T12:18:30;3.88;;;1.05;;
54743;SDS011;40639;53.170;6.728;2023-08-31T12:20:59;3.08;;;0.90;;
54743;SDS011;40639;53.170;6.728;2023-08-31T12:23:25;1.67;;;0.82;;
54743;SDS011;40639;53.170;6.728;2023-08-31T12:25:52;3.08;;;0.90;;
54743;SDS011;40639;53.170;6.728;2023-08-31T12:28:19;2.17;;;0.82;;
54743;SDS011;40639;53.170;6.728;2023-08-31T12:30:50;3.50;;;0.95;;
54743;SDS011;40639;53.170;6.728;2023-08-31T12:33:17;1.55;;;1.02;;
54743;SDS011;40639;53.170;6.728;2023-08-31T12:35:43;1.95;;;0.80;;
54743;SDS011;40639;53.170;6.728;2023-08-31T12:38:09;3.53;;;1.25;;
54743;SDS011;40639;53.170;6.728;2023-08-31T12:40:36;1.55;;;1.00;;
54743;SDS011;40639;53.170;6.728;2023-08-31T12:43:04;4.85;;;1.45;;
54743;SDS011;40639;53.170;6.728;2023-08-31T12:45:30;2.10;;;1.05;;
54743;SDS011;40639;53.170;6.728;2023-08-31T12:47:56;2.60;;;1.13;;
54743;SDS011;40639;53.170;6.728;2023-08-31T12:50:22;4.63;;;1.15;;
54743;SDS011;40639;53.170;6.728;2023-08-31T12:52:48;1.17;;;0.63;;
54743;SDS011;40639;53.170;6.728;2023-08-31T12:55:15;2.70;;;0.82;;
54743;SDS011;40639;53.170;6.728;2023-08-31T12:57:42;2.78;;;0.80;;
54743;SDS011;40639;53.170;6.728;2023-08-31T13:00:08;4.85;;;0.93;;
54743;SDS011;40639;53.170;6.728;2023-08-31T13:02:37;3.47;;;1.17;;
54743;SDS011;40639;53.170;6.728;2023-08-31T13:05:03;5.13;;;1.48;;
54743;SDS011;40639;53.170;6.728;2023-08-31T13:07:30;4.75;;;1.20;;
54743;SDS011;40639;53.170;6.728;2023-08-31T13:10:02;4.50;;;1.02;;
54743;SDS011;40639;53.170;6.728;2023-08-31T13:12:32;3.20;;;1.23;;
54743;SDS011;40639;53.170;6.728;2023-08-31T13:14:58;3.90;;;1.00;;
54743;SDS011;40639;53.170;6.728;2023-08-31T13:17:25;3.42;;;0.65;;
54743;SDS011;40639;53.170;6.728;2023-08-31T13:19:54;2.47;;;0.70;;
54743;SDS011;40639;53.170;6.728;2023-08-31T13:22:20;2.47;;;0.75;;
54743;SDS011;40639;53.170;6.728;2023-08-31T13:24:46;2.85;;;0.93;;
54743;SDS011;40639;53.170;6.728;2023-08-31T13:27:12;2.83;;;0.70;;
54743;SDS011;40639;53.170;6.728;2023-08-31T13:29:39;2.58;;;0.73;;
54743;SDS011;40639;53.170;6.728;2023-08-31T13:32:05;2.35;;;0.60;;
54743;SDS011;40639;53.170;6.728;2023-08-31T13:34:32;3.95;;;1.00;;
54743;SDS011;40639;53.170;6.728;2023-08-31T13:36:58;3.55;;;0.73;;
54743;SDS011;40639;53.170;6.728;2023-08-31T13:39:25;2.25;;;0.70;;
54743;SDS011;40639;53.170;6.728;2023-08-31T13:41:52;1.13;;;0.60;;
54743;SDS011;40639;53.170;6.728;2023-08-31T13:44:20;3.38;;;0.80;;
54743;SDS011;40639;53.170;6.728;2023-08-31T13:46:49;7.10;;;1.00;;
54743;SDS011;40639;53.170;6.728;2023-08-31T13:49:16;1.27;;;0.70;;
54743;SDS011;40639;53.170;6.728;2023-08-31T13:51:42;3.15;;;0.90;;
54743;SDS011;40639;53.170;6.728;2023-08-31T13:54:10;4.22;;;1.10;;
54743;SDS011;40639;53.170;6.728;2023-08-31T13:56:37;5.15;;;0.90;;
54743;SDS011;40639;53.170;6.728;2023-08-31T13:59:03;2.63;;;0.98;;
54743;SDS011;40639;53.170;6.728;2023-08-31T14:01:29;4.78;;;1.73;;
54743;SDS011;40639;53.170;6.728;2023-08-31T14:03:55;2.47;;;0.90;;
54743;SDS011;40639;53.170;6.728;2023-08-31T14:06:21;3.58;;;1.00;;
54743;SDS011;40639;53.170;6.728;2023-08-31T14:08:47;4.47;;;1.00;;
54743;SDS011;40639;53.170;6.728;2023-08-31T14:11:13;2.92;;;1.17;;
54743;SDS011;40639;53.170;6.728;2023-08-31T14:13:39;1.75;;;0.93;;
54743;SDS011;40639;53.170;6.728;2023-08-31T14:16:06;1.33;;;0.73;;
54743;SDS011;40639;53.170;6.728;2023-08-31T14:18:32;1.02;;;0.60;;
54743;SDS011;40639;53.170;6.728;2023-08-31T14:20:58;1.95;;;0.93;;
54743;SDS011;40639;53.170;6.728;2023-08-31T14:23:26;1.83;;;0.70;;
54743;SDS011;40639;53.170;6.728;2023-08-31T14:25:52;2.08;;;0.70;;
54743;SDS011;40639;53.170;6.728;2023-08-31T14:28:18;3.05;;;0.75;;
54743;SDS011;40639;53.170;6.728;2023-08-31T14:30:44;2.25;;;0.90;;
54743;SDS011;40639;53.170;6.728;2023-08-31T14:33:28;2.20;;;0.88;;
54743;SDS011;40639;53.170;6.728;2023-08-31T14:35:54;2.53;;;0.88;;
54743;SDS011;40639;53.170;6.728;2023-08-31T14:38:20;4.63;;;1.00;;
54743;SDS011;40639;53.170;6.728;2023-08-31T14:40:47;2.33;;;0.90;;
54743;SDS011;40639;53.170;6.728;2023-08-31T14:43:13;3.42;;;1.15;;
54743;SDS011;40639;53.170;6.728;2023-08-31T14:45:39;1.77;;;1.00;;
54743;SDS011;40639;53.170;6.728;2023-08-31T14:48:05;3.03;;;0.82;;
54743;SDS011;40639;53.170;6.728;2023-08-31T14:50:32;3.25;;;0.90;;
54743;SDS011;40639;53.170;6.728;2023-08-31T14:52:58;2.13;;;1.00;;
54743;SDS011;40639;53.170;6.728;2023-08-31T14:55:24;3.42;;;0.90;;
54743;SDS011;40639;53.170;6.728;2023-08-31T14:57:51;2.20;;;0.80;;
54743;SDS011;40639;53.170;6.728;2023-08-31T15:00:17;2.97;;;1.20;;